EGPK/PIK METAR and TAF weather

Enter ICAO airport designator
Station Type Date Time Source
EGPK METAR 2019/12/12 11:50 UTC NOAA

EGPK 121150Z 11011KT 9999 FEW015 SCT020 BKN040 06/03 Q0981


Station Type Date Time Source
EGPK Decoded METAR 2019/12/12 11:50 UTC NOAA

Prestwick Airport, United Kingdom (EGPK) 55-30N 004-35W 0M
Dec 12, 2019 - 06:50 AM EST / 2019.12.12 1150 UTC
Wind: from the ESE (110 degrees) at 13 MPH (11 KT):0
Visibility: greater than 7 mile(s):0
Sky conditions: mostly cloudy
Temperature: 42 F (6 C)
Dew Point: 37 F (3 C)
Relative Humidity: 81%
Pressure (altimeter): 28.97 in. Hg (0981 hPa)
ob: EGPK 121150Z 11011KT 9999 FEW015 SCT020 BKN040 06/03 Q0981
cycle: 12

Station Type Date Time Source
EGPK TAF 2019/12/12 12:09 UTC NOAA

TAF EGPK 121055Z 1212/1312 13009KT 9999 SCT015
TEMPO 1212/1306 8000 -RA BKN010 PROB30
TEMPO 1221/1304 RA BKN006
BECMG 1306/1309 31010KT

Example: see airport list